Página principal
METAR-TAF:

METAR-TAF

Aeroportos :

Aeroporto de Gran Canária

Gran Canária, Espanha

latitude: 27-56N, longitude: 015-23W, altura: 23 m

Observação actual do tempo

O boletim foi feito há 38 minutos, às 09:30 UTC
Vento 21 kt de norte
Temperatura 24°C
Humidade 65%
Pressão 1015 hPa
Visibilidade 10 km ou mais
Nuvens fragmentadasa uma altura de 3000 ft

METAR: GCLP 180930Z 01021KT 9999 BKN030 24/17 Q1015 NOSIG

Hora: 11:08 (10:08 UTC)

Previsão

O boletim foi feito há 2 horas e 8 minutos, às 08:00 UTC
Previsão válida de 18 às 09 UTC a 19 às 09 UTC
Vento 23 kt de norte
Visibilidade 10 km ou mais
Nuvens dispersasa uma altura de 3000 ft
Probabilidade 40% :
Temporariamente
de 18 às 09 UTC a 18 às 20 UTC
Vento 23 kt de norte com rajadas de 33 kt

TAF: GCLP 180800Z 1809/1909 36023KT 9999 SCT030 TX26/1815Z TN21/1905Z PROB40 TEMPO 1809/1820 36023G33KT

Observações e previsões do tempo de mais de 4000 aeroportos (mensagens METAR e TAF).

As estações disponíveis são os pontos amarelos e vermelhos sobre o mapa.

Mova o rato sobre o mapa para ver o nome da estação.

Depois clique no ponto para visualizar as observações e previsões meteorológicas.

Para alterar o mapa : clique nos botões verdes com uma cruz preta para aumentar o zoom; no botão verde com uma pitada de zoom; ou nas setas verdes para mapas adjacentes.


METAR-TAF: